Time;durP1;ratioP1;P1;durP2;ratioP2;P2;SDS_P1;SDS_P2;PMS_P1;PMS_P2;Temp;Humidity;BMP_temperature;BMP_pressure;BME280_temperature;BME280_humidity;BME280_pressure;Samples;Min_cycle;Max_cycle;Signal;HPM_P1;HPM_P2
2021/09/01 00:01:30;;;;;;;;;21.00;21.00;;;;;20.58;55.09;102064.44;5078435;28;45542;-53
2021/09/01 00:03:56;;;;;;;;;18.25;17.75;;;;;20.57;55.25;102076.19;5081735;27;48171;-53
2021/09/01 00:06:21;;;;;;;;;22.50;20.75;;;;;20.53;54.96;102070.03;5078902;28;45277;-53
2021/09/01 00:08:51;;;;;;;;;24.00;20.75;;;;;20.50;55.40;102078.28;5081015;27;45358;-51
2021/09/01 00:11:21;;;;;;;;;21.00;19.50;;;;;20.48;54.84;102066.69;5078278;27;45419;-54
2021/09/01 00:13:47;;;;;;;;;18.50;18.50;;;;;20.45;55.23;102069.47;5078521;28;45604;-51
2021/09/01 00:16:26;;;;;;;;;20.00;20.00;;;;;20.42;55.84;102074.13;5065742;28;45607;-51
2021/09/01 00:19:10;;;;;;;;;18.25;18.25;;;;;20.40;55.73;102078.69;5077620;27;45448;-50
2021/09/01 00:21:37;;;;;;;;;19.75;18.00;;;;;20.36;55.57;102077.94;5059827;28;45544;-46
2021/09/01 00:24:03;;;;;;;;;20.00;19.75;;;;;20.33;56.17;102079.84;5078016;28;47490;-50
2021/09/01 00:26:29;;;;;;;;;18.50;17.75;;;;;20.29;55.81;102076.41;5078556;28;45251;-48
2021/09/01 00:28:56;;;;;;;;;20.75;20.75;;;;;20.27;55.70;102073.78;5078436;28;45346;-51
2021/09/01 00:31:23;;;;;;;;;25.25;25.25;;;;;20.25;55.99;102072.09;5076881;27;45599;-51
2021/09/01 00:33:48;;;;;;;;;18.75;18.75;;;;;20.23;56.12;102069.47;5066305;28;48752;-52
2021/09/01 00:36:15;;;;;;;;;23.50;20.00;;;;;20.23;56.27;102076.69;5060032;28;45826;-52
2021/09/01 00:38:41;;;;;;;;;23.00;21.00;;;;;20.21;56.54;102083.94;5078287;28;45632;-52
2021/09/01 00:41:07;;;;;;;;;18.00;15.50;;;;;20.20;56.14;102075.00;5077937;28;45522;-50
2021/09/01 00:43:32;;;;;;;;;17.00;17.00;;;;;20.20;56.26;102075.00;5078402;28;47256;-52
2021/09/01 00:45:58;;;;;;;;;19.75;17.50;;;;;20.20;56.44;102066.00;5078081;28;46172;-50
2021/09/01 00:48:25;;;;;;;;;20.50;19.00;;;;;20.16;56.50;102076.03;5080502;27;45244;-50
2021/09/01 00:50:56;;;;;;;;;21.50;19.25;;;;;20.15;56.61;102078.78;5077983;28;45460;-50
2021/09/01 00:53:26;;;;;;;;;21.00;21.00;;;;;20.12;56.92;102078.91;5078146;28;46978;-50
2021/09/01 00:55:52;;;;;;;;;20.00;19.00;;;;;20.10;56.57;102083.50;5078033;28;45504;-50
2021/09/01 00:58:18;;;;;;;;;23.75;18.25;;;;;20.09;57.04;102079.06;5075773;27;45619;-51
2021/09/01 01:01:15;;;;;;;;;19.00;18.25;;;;;20.07;56.56;102081.78;5077835;28;45730;-51
2021/09/01 01:03:30;;;;;;;;;24.75;19.25;;;;;20.05;57.02;102075.56;5087641;27;46982;-50
2021/09/01 01:05:57;;;;;;;;;22.00;18.25;;;;;20.05;57.04;102080.09;5081467;27;46096;-48
2021/09/01 01:08:26;;;;;;;;;23.00;19.75;;;;;20.02;57.40;102081.09;5086974;27;45344;-52
2021/09/01 01:10:51;;;;;;;;;19.50;19.00;;;;;20.00;57.02;102082.97;5078437;27;45330;-49
2021/09/01 01:13:17;;;;;;;;;22.00;20.50;;;;;19.98;57.65;102076.78;5077553;28;47096;-51
2021/09/01 01:15:43;;;;;;;;;20.75;18.50;;;;;19.96;57.34;102084.03;5081523;27;46002;-51
2021/09/01 01:18:12;;;;;;;;;23.50;20.75;;;;;19.93;57.46;102081.44;5063050;28;45495;-51
2021/09/01 01:20:39;;;;;;;;;25.75;25.00;;;;;19.91;57.16;102078.81;5081853;27;45470;-51
2021/09/01 01:23:06;;;;;;;;;22.25;20.50;;;;;19.91;57.13;102080.63;5081265;28;48260;-51
2021/09/01 01:25:33;;;;;;;;;24.50;22.50;;;;;19.88;57.33;102072.69;5067814;28;45519;-47
2021/09/01 01:27:58;;;;;;;;;21.25;18.75;;;;;19.86;57.48;102078.13;5080839;28;45310;-51
2021/09/01 01:30:24;;;;;;;;;20.25;18.75;;;;;19.84;57.42;102068.34;5081479;28;45722;-51
2021/09/01 01:32:52;;;;;;;;;20.50;20.50;;;;;19.83;57.39;102069.28;5079655;27;47082;-49
2021/09/01 01:35:23;;;;;;;;;25.75;24.50;;;;;19.80;57.84;102067.56;5080788;27;45306;-47
2021/09/01 01:37:49;;;;;;;;;22.25;21.25;;;;;19.78;57.51;102063.19;5080818;28;45495;-50
2021/09/01 01:40:14;;;;;;;;;20.00;20.00;;;;;19.77;57.64;102061.44;5085731;27;45683;-51
2021/09/01 01:42:41;;;;;;;;;25.75;23.50;;;;;19.78;57.59;102069.44;5062638;28;48143;-49
2021/09/01 01:45:08;;;;;;;;;29.00;24.50;;;;;19.78;57.81;102064.06;5081184;28;45335;-50
2021/09/01 01:47:34;;;;;;;;;21.75;21.00;;;;;19.77;57.86;102070.38;5081048;28;45623;-51
2021/09/01 01:49:59;;;;;;;;;26.75;21.00;;;;;19.76;57.93;102071.31;5080971;27;45389;-51
2021/09/01 01:52:24;;;;;;;;;21.00;21.00;;;;;19.76;58.08;102074.03;5080763;27;47251;-51
2021/09/01 01:54:50;;;;;;;;;24.50;22.25;;;;;19.77;58.11;102070.38;5062604;28;45326;-50
2021/09/01 01:57:15;;;;;;;;;26.00;22.50;;;;;19.78;57.96;102071.28;5080512;27;45290;-51
2021/09/01 01:59:41;;;;;;;;;23.00;20.50;;;;;19.76;57.90;102068.63;5087608;27;45582;-52
2021/09/01 02:02:06;;;;;;;;;28.25;25.75;;;;;19.77;57.90;102065.00;5080731;27;47282;-49
2021/09/01 02:04:32;;;;;;;;;22.75;20.75;;;;;19.79;58.49;102073.03;5082986;27;45839;-46
2021/09/01 02:06:57;;;;;;;;;24.25;22.25;;;;;19.79;57.96;102064.94;5062349;27;45301;-52
2021/09/01 02:09:23;;;;;;;;;21.00;19.50;;;;;19.79;58.11;102068.50;5063431;27;45289;-47
2021/09/01 02:11:48;;;;;;;;;24.75;23.75;;;;;19.79;58.02;102071.19;5080307;27;47373;-50
2021/09/01 02:14:13;;;;;;;;;26.00;24.25;;;;;19.79;57.91;102073.91;5080397;27;45988;-49
2021/09/01 02:16:39;;;;;;;;;26.25;25.75;;;;;19.79;58.15;102078.41;5075356;27;45424;-52
2021/09/01 02:19:04;;;;;;;;;24.00;24.00;;;;;19.76;57.86;102079.41;5079868;27;45377;-51
2021/09/01 02:21:30;;;;;;;;;31.50;28.00;;;;;19.76;58.19;102076.72;5079985;28;47357;-49
2021/09/01 02:23:56;;;;;;;;;25.25;24.00;;;;;19.76;58.37;102075.84;5080149;28;45389;-51
2021/09/01 02:26:21;;;;;;;;;23.50;21.25;;;;;19.75;58.27;102080.34;5079639;27;45592;-50
2021/09/01 02:28:46;;;;;;;;;23.75;23.00;;;;;19.75;57.94;102080.34;5080307;27;45448;-51
2021/09/01 02:31:12;;;;;;;;;25.50;24.50;;;;;19.76;58.13;102081.22;5065578;27;47073;-50
2021/09/01 02:33:37;;;;;;;;;26.25;23.25;;;;;19.75;58.09;102084.88;5077385;28;45867;-52
2021/09/01 02:36:03;;;;;;;;;27.50;25.25;;;;;19.75;58.06;102083.03;5074524;27;45290;-52
2021/09/01 02:38:29;;;;;;;;;23.00;22.75;;;;;19.76;58.05;102081.22;5062097;27;45522;-51
2021/09/01 02:40:54;;;;;;;;;25.50;24.25;;;;;19.77;58.21;102077.59;5061769;27;47694;-51
2021/09/01 02:43:20;;;;;;;;;26.50;23.75;;;;;19.76;58.34;102083.91;5082237;27;45401;-49
2021/09/01 02:45:45;;;;;;;;;23.25;22.50;;;;;19.77;58.29;102082.97;5080327;27;45411;-51
2021/09/01 02:48:11;;;;;;;;;25.75;25.50;;;;;19.77;58.16;102085.69;5066058;27;45504;-50
2021/09/01 02:50:36;;;;;;;;;31.25;26.75;;;;;19.76;57.87;102081.22;5061614;27;47504;-50
2021/09/01 02:53:02;;;;;;;;;23.75;23.50;;;;;19.73;58.16;102073.28;5061514;28;45621;-50
2021/09/01 02:55:27;;;;;;;;;32.00;28.75;;;;;19.72;58.01;102082.28;5080148;27;45298;-50
2021/09/01 02:57:53;;;;;;;;;29.25;24.50;;;;;19.71;58.01;102077.84;5061622;27;45403;-50
2021/09/01 03:00:18;;;;;;;;;26.25;25.00;;;;;19.73;58.07;102087.63;5070776;27;48042;-50
2021/09/01 03:02:43;;;;;;;;;23.75;23.75;;;;;19.75;58.47;102071.41;5079686;27;45701;-52
2021/09/01 03:05:09;;;;;;;;;27.25;22.25;;;;;19.75;57.97;102083.03;5081199;27;45329;-52
2021/09/01 03:07:35;;;;;;;;;26.00;22.00;;;;;19.75;58.26;102082.16;5079943;28;45363;-47
2021/09/01 03:10:00;;;;;;;;;24.75;24.75;;;;;19.75;58.12;102077.66;5079700;28;45373;-49
2021/09/01 03:12:26;;;;;;;;;25.00;23.75;;;;;19.76;58.46;102089.31;5061538;28;45378;-48
2021/09/01 03:14:51;;;;;;;;;24.50;23.25;;;;;19.77;57.97;102096.44;5079718;28;45486;-51
2021/09/01 03:17:17;;;;;;;;;22.00;22.00;;;;;19.78;58.01;102098.19;5061814;28;45335;-47
2021/09/01 03:19:42;;;;;;;;;22.75;21.75;;;;;19.78;57.83;102090.13;5078985;28;46087;-51
2021/09/01 03:22:07;;;;;;;;;27.25;25.00;;;;;19.75;58.30;102084.88;5061391;28;45342;-49
2021/09/01 03:24:33;;;;;;;;;25.25;25.25;;;;;19.73;58.30;102082.22;5079540;28;45407;-48
2021/09/01 03:26:58;;;;;;;;;30.00;26.75;;;;;19.74;58.05;102091.19;5061262;28;45858;-50
2021/09/01 03:29:24;;;;;;;;;24.75;22.75;;;;;19.72;58.08;102085.00;5079081;27;47734;-51
2021/09/01 03:31:49;;;;;;;;;27.00;27.00;;;;;19.69;58.26;102084.16;5064921;28;46071;-48
2021/09/01 03:34:15;;;;;;;;;30.50;26.75;;;;;19.68;58.26;102077.00;5071292;28;45507;-51
2021/09/01 03:36:40;;;;;;;;;23.50;23.50;;;;;19.68;57.96;102087.78;5079179;27;45300;-50
2021/09/01 03:39:06;;;;;;;;;28.75;27.25;;;;;19.68;58.15;102077.00;5080185;27;47626;-49
2021/09/01 03:41:31;;;;;;;;;23.50;21.50;;;;;19.67;57.98;102082.44;5087197;27;45407;-50
2021/09/01 03:43:57;;;;;;;;;28.00;26.50;;;;;19.67;58.03;102072.56;5061134;28;45478;-50
2021/09/01 03:46:22;;;;;;;;;24.25;21.00;;;;;19.65;58.20;102077.13;5060987;28;45592;-51
2021/09/01 03:48:48;;;;;;;;;18.00;17.25;;;;;19.66;58.03;102081.56;5078581;28;45991;-53
2021/09/01 03:51:13;;;;;;;;;23.50;23.50;;;;;19.66;58.20;102073.50;5060594;28;45742;-48
2021/09/01 03:53:39;;;;;;;;;25.00;23.75;;;;;19.66;58.27;102083.38;5079185;27;45495;-52
2021/09/01 03:56:04;;;;;;;;;26.25;23.75;;;;;19.66;58.35;102089.66;5079353;27;45428;-53
2021/09/01 03:58:30;;;;;;;;;25.00;22.50;;;;;19.68;58.11;102089.59;5084682;27;47561;-51
2021/09/01 04:00:55;;;;;;;;;22.75;21.50;;;;;19.69;57.97;102088.66;5079679;27;46076;-54
2021/09/01 04:03:21;;;;;;;;;22.00;22.00;;;;;19.69;58.18;102096.72;5081500;27;45286;-53
2021/09/01 04:05:46;;;;;;;;;20.25;20.25;;;;;19.69;58.04;102086.88;5079111;27;45331;-52
2021/09/01 04:08:12;;;;;;;;;21.25;21.25;;;;;19.72;58.17;102085.88;5078298;28;48297;-54
2021/09/01 04:10:37;;;;;;;;;23.25;20.50;;;;;19.73;58.05;102082.22;5078912;27;45654;-52
2021/09/01 04:13:02;;;;;;;;;22.50;22.50;;;;;19.74;57.88;102086.69;5078412;28;45511;-54
2021/09/01 04:15:28;;;;;;;;;27.50;24.25;;;;;19.74;57.89;102094.75;5079012;27;45336;-54
2021/09/01 04:17:53;;;;;;;;;24.75;23.25;;;;;19.73;58.24;102086.75;5076126;27;46451;-51
2021/09/01 04:20:19;;;;;;;;;25.50;25.50;;;;;19.72;58.28;102085.00;5060584;28;45507;-51
2021/09/01 04:22:44;;;;;;;;;24.50;23.00;;;;;19.72;58.02;102079.59;5078221;27;45371;-52
2021/09/01 04:25:10;;;;;;;;;23.25;21.50;;;;;19.72;58.14;102087.69;5072481;28;45476;-52
2021/09/01 04:27:35;;;;;;;;;26.00;24.75;;;;;19.73;57.88;102079.53;5078192;27;47377;-49
2021/09/01 04:30:01;;;;;;;;;20.00;19.75;;;;;19.73;57.78;102089.44;5078152;27;45810;-53
2021/09/01 04:32:26;;;;;;;;;24.50;22.50;;;;;19.72;57.70;102082.28;5070340;28;45500;-53
2021/09/01 04:34:52;;;;;;;;;26.50;24.50;;;;;19.72;57.89;102085.88;5075674;27;45404;-53
2021/09/01 04:37:17;;;;;;;;;27.25;23.50;;;;;19.72;57.98;102080.47;5077273;27;48205;-53
2021/09/01 04:39:43;;;;;;;;;26.00;25.00;;;;;19.73;58.14;102089.44;5077542;27;45449;-53
2021/09/01 04:42:08;;;;;;;;;24.75;23.50;;;;;19.70;58.08;102082.34;5078303;27;45606;-53
2021/09/01 04:44:34;;;;;;;;;22.50;22.50;;;;;19.71;57.79;102102.09;5078590;28;45238;-52
2021/09/01 04:46:59;;;;;;;;;23.75;23.25;;;;;19.70;57.89;102101.22;5078302;27;45401;-54
2021/09/01 04:49:26;;;;;;;;;23.00;22.50;;;;;19.71;57.71;102107.47;5082708;27;45424;-55
2021/09/01 04:51:51;;;;;;;;;25.75;23.00;;;;;19.68;57.82;102103.94;5063954;28;45373;-54
2021/09/01 04:54:16;;;;;;;;;24.00;21.25;;;;;19.69;57.66;102111.09;5081692;27;45344;-55
2021/09/01 04:56:42;;;;;;;;;26.25;26.00;;;;;19.69;57.90;102112.88;5081454;27;47131;-53
2021/09/01 04:59:08;;;;;;;;;25.25;25.25;;;;;19.66;57.95;102111.19;5079116;27;45860;-54
2021/09/01 05:01:33;;;;;;;;;25.00;25.00;;;;;19.65;57.80;102111.25;5075686;27;51422;-54
2021/09/01 05:03:59;;;;;;;;;23.50;23.00;;;;;19.65;57.77;102111.25;5088985;27;45555;-53
2021/09/01 05:06:27;;;;;;;;;25.00;24.50;;;;;19.66;57.63;102108.50;5081096;27;47507;-50
2021/09/01 05:08:53;;;;;;;;;30.50;25.50;;;;;19.63;57.92;102100.53;5061391;28;45516;-54
2021/09/01 05:11:19;;;;;;;;;23.75;22.25;;;;;19.62;57.94;102104.19;5080784;28;45634;-51
2021/09/01 05:13:44;;;;;;;;;32.00;29.25;;;;;19.61;57.83;102099.72;5063555;28;45319;-52
2021/09/01 05:16:10;;;;;;;;;27.00;23.75;;;;;19.60;58.23;102100.66;5081475;28;45481;-53
2021/09/01 05:18:35;;;;;;;;;23.75;23.75;;;;;19.63;57.94;102099.66;5081726;27;45464;-53
2021/09/01 05:21:04;;;;;;;;;23.50;22.75;;;;;19.64;57.71;102102.31;5086785;27;45606;-52
2021/09/01 05:23:34;;;;;;;;;28.75;24.00;;;;;19.65;58.06;102101.34;5081454;28;45467;-54
2021/09/01 05:26:03;;;;;;;;;26.50;23.75;;;;;19.67;58.12;102099.47;5080936;28;48225;-53
2021/09/01 05:28:31;;;;;;;;;23.50;23.00;;;;;19.67;57.97;102106.69;5081263;27;45596;-51
2021/09/01 05:31:01;;;;;;;;;24.50;23.50;;;;;19.65;57.59;102098.66;5080672;27;45479;-53
2021/09/01 05:33:30;;;;;;;;;25.00;24.00;;;;;19.65;58.05;102104.06;5071209;28;45491;-54
2021/09/01 05:35:56;;;;;;;;;20.75;20.00;;;;;19.67;57.81;102104.88;5062910;28;46917;-53
2021/09/01 05:38:22;;;;;;;;;23.00;23.00;;;;;19.68;57.56;102106.63;5061915;28;45589;-55
2021/09/01 05:40:50;;;;;;;;;26.50;25.75;;;;;19.68;57.51;102111.13;5078431;27;45721;-54
2021/09/01 05:43:18;;;;;;;;;23.50;22.50;;;;;19.66;57.88;102115.69;5080372;28;45959;-50
2021/09/01 05:45:45;;;;;;;;;23.00;21.25;;;;;19.66;57.57;102115.69;5060319;28;47677;-51
2021/09/01 05:48:12;;;;;;;;;24.75;23.25;;;;;19.67;57.75;102121.03;5074337;28;45417;-55
2021/09/01 05:50:42;;;;;;;;;28.00;25.50;;;;;19.65;57.73;102124.72;5081874;27;45488;-54
2021/09/01 05:53:09;;;;;;;;;24.50;24.25;;;;;19.64;58.08;102118.47;5066325;28;45390;-53
2021/09/01 05:55:37;;;;;;;;;24.75;23.00;;;;;19.65;57.96;102130.09;5072449;27;45561;-54
2021/09/01 05:58:03;;;;;;;;;32.75;27.75;;;;;19.63;57.55;102122.09;5075007;27;46046;-53
2021/09/01 06:00:35;;;;;;;;;27.75;26.00;;;;;19.62;57.74;102123.03;5072492;27;45327;-53
2021/09/01 06:03:24;;;;;;;;;27.75;26.50;;;;;19.62;57.94;102120.34;5085645;27;45877;-54
2021/09/01 06:05:58;;;;;;;;;23.50;22.50;;;;;19.63;58.22;102132.88;5049783;28;45676;-53
2021/09/01 06:08:30;;;;;;;;;23.50;21.25;;;;;19.65;58.13;102124.72;5080715;27;45321;-55
2021/09/01 06:10:57;;;;;;;;;27.00;25.50;;;;;19.68;58.24;102132.69;5073048;27;45332;-55
2021/09/01 06:13:23;;;;;;;;;21.75;21.75;;;;;19.69;57.80;102124.56;5077335;27;45717;-53
2021/09/01 06:15:49;;;;;;;;;20.75;20.25;;;;;19.71;57.42;102116.44;5077399;27;47255;-54
2021/09/01 06:18:14;;;;;;;;;25.00;20.25;;;;;19.73;57.75;102119.94;5061562;27;45426;-53
2021/09/01 06:20:40;;;;;;;;;24.00;20.75;;;;;19.74;57.47;102120.81;5060944;28;45547;-55
2021/09/01 06:23:06;;;;;;;;;28.25;26.00;;;;;19.75;57.63;102117.19;5079793;27;45368;-54
2021/09/01 06:25:32;;;;;;;;;30.25;25.75;;;;;19.75;57.72;102115.38;5079923;27;48445;-55
2021/09/01 06:27:59;;;;;;;;;25.00;22.25;;;;;19.79;57.94;102118.81;5079200;27;45984;-54
2021/09/01 06:30:24;;;;;;;;;24.00;23.00;;;;;19.81;57.59;102115.13;5079220;28;45358;-54
2021/09/01 06:32:50;;;;;;;;;20.00;20.00;;;;;19.81;57.60;102109.72;5064787;27;45801;-55
2021/09/01 06:35:16;;;;;;;;;23.50;22.75;;;;;19.83;57.44;102112.41;5079049;27;47341;-58
2021/09/01 06:37:43;;;;;;;;;24.50;24.00;;;;;19.85;57.91;102110.53;5061695;28;45559;-55
2021/09/01 06:40:10;;;;;;;;;26.00;23.50;;;;;19.87;57.49;102109.50;5077941;27;45516;-55
2021/09/01 06:42:36;;;;;;;;;22.75;22.00;;;;;19.91;57.76;102108.44;5075374;27;45577;-55
2021/09/01 06:45:02;;;;;;;;;22.00;21.50;;;;;19.94;57.63;102105.63;5059333;28;47811;-53
2021/09/01 06:47:50;;;;;;;;;25.50;25.00;;;;;19.98;57.52;102101.03;5042440;27;46224;-54
2021/09/01 06:50:18;;;;;;;;;24.00;20.00;;;;;20.02;57.53;102113.44;5076713;27;45438;-53
2021/09/01 06:52:45;;;;;;;;;29.50;27.75;;;;;20.03;57.46;102115.19;5078574;27;45379;-52
2021/09/01 06:55:12;;;;;;;;;26.25;22.25;;;;;20.06;57.31;102109.66;5063949;27;48135;-55
2021/09/01 06:57:38;;;;;;;;;24.25;23.25;;;;;20.08;57.43;102115.91;5076762;27;45354;-53
2021/09/01 07:00:05;;;;;;;;;18.75;18.75;;;;;20.11;57.11;102112.19;5077330;27;45381;-54
2021/09/01 07:02:31;;;;;;;;;27.50;27.00;;;;;20.13;56.87;102115.72;5045422;27;45693;-52
2021/09/01 07:04:56;;;;;;;;;24.00;22.00;;;;;20.12;57.49;102122.03;5077028;27;48159;-56
2021/09/01 07:07:22;;;;;;;;;28.25;25.00;;;;;20.14;57.33;102117.47;5075804;27;45637;-54
2021/09/01 07:09:47;;;;;;;;;26.25;25.25;;;;;20.14;57.02;102117.47;5073623;27;45362;-54
2021/09/01 07:12:13;;;;;;;;;26.00;24.25;;;;;20.11;56.96;102112.19;5068141;28;45505;-55
2021/09/01 07:14:38;;;;;;;;;27.75;26.25;;;;;20.09;57.16;102108.69;5075003;27;46908;-53
2021/09/01 07:17:03;;;;;;;;;24.75;24.00;;;;;20.11;56.88;102112.19;5079516;28;45396;-53
2021/09/01 07:19:29;;;;;;;;;23.00;22.00;;;;;20.10;56.75;102105.94;5078885;28;45428;-53
2021/09/01 07:21:55;;;;;;;;;25.25;21.75;;;;;20.12;56.72;102113.97;5077179;27;45462;-50
2021/09/01 07:24:20;;;;;;;;;21.50;20.25;;;;;20.13;57.00;102102.22;5074038;28;47754;-55
2021/09/01 07:26:45;;;;;;;;;21.25;19.50;;;;;20.14;57.01;102099.47;5073014;28;45993;-54
2021/09/01 07:29:11;;;;;;;;;26.50;24.25;;;;;20.15;57.10;102101.22;5076332;28;45668;-53
2021/09/01 07:31:36;;;;;;;;;23.00;22.00;;;;;20.18;57.15;102102.91;5073422;28;45503;-53
2021/09/01 07:34:02;;;;;;;;;23.75;21.50;;;;;20.20;56.47;102098.34;5060945;28;46600;-55
2021/09/01 07:36:28;;;;;;;;;23.75;21.75;;;;;20.23;56.44;102095.53;5078682;28;45507;-52
2021/09/01 07:38:53;;;;;;;;;24.25;23.25;;;;;20.23;56.38;102104.50;5079047;27;45715;-54
2021/09/01 07:41:19;;;;;;;;;22.50;21.75;;;;;20.26;56.78;102103.50;5079041;28;45401;-53
2021/09/01 07:43:44;;;;;;;;;24.25;22.00;;;;;20.27;56.55;102095.34;5060436;28;47468;-53
2021/09/01 07:46:10;;;;;;;;;26.00;22.25;;;;;20.29;56.59;102101.56;5078177;28;45764;-54
2021/09/01 07:48:36;;;;;;;;;22.50;21.00;;;;;20.31;56.04;102106.00;5079907;27;45435;-54
2021/09/01 07:51:04;;;;;;;;;25.75;21.50;;;;;20.31;56.22;102106.00;5069499;27;45754;-54
2021/09/01 07:53:29;;;;;;;;;21.00;19.00;;;;;20.32;56.24;102110.44;5078612;28;47186;-55
2021/09/01 07:55:55;;;;;;;;;29.25;27.75;;;;;20.34;56.16;102105.91;5061322;27;45779;-54
2021/09/01 07:58:21;;;;;;;;;23.75;22.50;;;;;20.36;56.52;102112.09;5078550;28;45540;-55
2021/09/01 08:00:46;;;;;;;;;22.00;21.00;;;;;20.38;56.14;102104.81;5078845;28;45418;-51
2021/09/01 08:03:12;;;;;;;;;24.25;20.75;;;;;20.40;55.99;102108.34;5084974;27;46491;-55
2021/09/01 08:05:38;;;;;;;;;29.00;24.75;;;;;20.41;56.42;102105.56;5075662;28;46348;-52
2021/09/01 08:08:04;;;;;;;;;24.50;21.50;;;;;20.44;56.00;102102.78;5078229;27;45526;-54
2021/09/01 08:10:30;;;;;;;;;23.25;22.75;;;;;20.49;56.13;102098.09;5078371;28;46589;-55
2021/09/01 08:12:56;;;;;;;;;27.00;24.75;;;;;20.53;56.18;102102.41;5060578;27;47957;-54
2021/09/01 08:15:22;;;;;;;;;23.00;19.00;;;;;20.59;55.59;102104.00;5078366;28;45555;-54
2021/09/01 08:17:48;;;;;;;;;28.75;24.25;;;;;20.62;56.10;102109.25;5072015;28;45473;-52
2021/09/01 08:20:14;;;;;;;;;28.50;26.00;;;;;20.63;55.47;102099.34;5077832;28;45476;-53
2021/09/01 08:22:39;;;;;;;;;25.00;24.00;;;;;20.68;55.92;102105.41;5068571;28;47174;-53
2021/09/01 08:25:06;;;;;;;;;26.00;22.75;;;;;20.72;55.46;102099.84;5073421;28;46051;-56
2021/09/01 08:27:31;;;;;;;;;32.25;29.75;;;;;20.76;55.68;102103.28;5069074;28;45721;-52
2021/09/01 08:29:57;;;;;;;;;26.50;25.00;;;;;20.79;55.21;102098.63;5079068;27;45424;-52
2021/09/01 08:32:23;;;;;;;;;27.25;25.75;;;;;20.81;55.21;102102.13;5053861;28;45355;-52
2021/09/01 08:34:50;;;;;;;;;23.50;22.50;;;;;20.85;55.17;102095.69;5060870;28;45461;-53
2021/09/01 08:37:15;;;;;;;;;24.75;24.75;;;;;20.88;55.58;102115.38;5081024;27;45295;-54
2021/09/01 08:39:41;;;;;;;;;26.50;25.25;;;;;20.88;54.85;102100.06;5078190;28;45519;-51
2021/09/01 08:42:06;;;;;;;;;23.50;23.25;;;;;20.91;55.33;102104.44;5074649;28;46966;-55
2021/09/01 08:44:32;;;;;;;;;26.00;23.50;;;;;20.96;55.23;102102.41;5061409;28;45426;-54
2021/09/01 08:47:00;;;;;;;;;23.25;21.25;;;;;20.99;55.35;102100.47;5065267;27;45423;-53
2021/09/01 08:49:30;;;;;;;;;30.50;27.00;;;;;21.03;54.81;102102.09;5077763;27;45372;-53
2021/09/01 08:51:56;;;;;;;;;25.25;25.25;;;;;21.06;55.29;102099.25;5054368;28;48321;-53
2021/09/01 08:54:22;;;;;;;;;20.50;20.50;;;;;21.09;55.27;102103.66;5075454;28;46143;-54
2021/09/01 08:56:48;;;;;;;;;21.75;21.75;;;;;21.13;55.02;102110.69;5075182;28;45358;-50
2021/09/01 08:59:14;;;;;;;;;24.75;22.50;;;;;21.20;54.90;102116.66;5076164;27;45675;-55
2021/09/01 09:01:44;;;;;;;;;22.25;21.75;;;;;21.22;54.73;102118.38;5059671;28;48083;-53
2021/09/01 09:04:34;;;;;;;;;23.75;21.75;;;;;21.27;54.71;102123.59;5074038;27;46388;-54
2021/09/01 09:07:06;;;;;;;;;24.00;24.00;;;;;21.29;54.21;102116.31;5072037;27;45689;-54
2021/09/01 09:09:38;;;;;;;;;23.75;21.75;;;;;21.35;54.89;102108.81;5080767;27;45844;-55
2021/09/01 09:12:06;;;;;;;;;20.25;19.50;;;;;21.40;54.66;102106.78;5045030;28;45532;-56
2021/09/01 09:14:34;;;;;;;;;23.25;22.00;;;;;21.43;54.26;102103.94;5058579;28;45418;-54
2021/09/01 09:17:05;;;;;;;;;21.75;21.00;;;;;21.49;54.46;102099.22;5078067;28;45426;-51
2021/09/01 09:19:43;;;;;;;;;20.50;20.50;;;;;21.54;54.32;102102.59;5070996;28;45476;-53
2021/09/01 09:22:10;;;;;;;;;17.50;16.25;;;;;21.56;53.80;102093.44;5079870;27;46821;-54
2021/09/01 09:24:37;;;;;;;;;24.25;24.25;;;;;21.59;54.18;102087.91;5059445;28;45464;-51
2021/09/01 09:27:04;;;;;;;;;22.75;21.75;;;;;21.66;53.64;102093.91;5059847;28;45472;-54
2021/09/01 09:29:30;;;;;;;;;20.00;19.50;;;;;21.68;53.63;102089.31;5079354;27;45422;-55
2021/09/01 09:32:01;;;;;;;;;22.75;21.25;;;;;21.69;53.73;102100.03;5071302;27;45683;-53
2021/09/01 09:34:36;;;;;;;;;24.75;20.75;;;;;21.69;53.46;102091.94;5073655;27;45996;-54
2021/09/01 09:37:08;;;;;;;;;21.50;20.00;;;;;21.74;53.73;102091.75;5061550;28;45359;-54
2021/09/01 09:39:36;;;;;;;;;19.75;19.00;;;;;21.79;53.68;102088.81;5081591;27;45712;-58
2021/09/01 09:42:02;;;;;;;;;23.25;19.25;;;;;21.84;53.32;102090.34;5075816;27;47545;-55
2021/09/01 09:44:28;;;;;;;;;21.50;17.75;;;;;21.89;53.38;102088.31;5063118;28;45485;-53
2021/09/01 09:46:54;;;;;;;;;22.75;18.75;;;;;21.93;53.26;102091.75;5063815;28;45891;-58
2021/09/01 09:49:28;;;;;;;;;21.50;21.25;;;;;21.93;53.22;102083.63;5082821;27;45508;-56
2021/09/01 09:51:54;;;;;;;;;22.50;21.00;;;;;21.96;52.96;102089.75;5076015;28;45552;-55
2021/09/01 09:54:22;;;;;;;;;20.50;17.50;;;;;21.99;53.04;102096.88;5062898;28;45814;-56
2021/09/01 09:56:49;;;;;;;;;22.75;22.00;;;;;22.04;52.98;102086.72;5080860;27;45478;-52
2021/09/01 09:59:17;;;;;;;;;23.50;23.50;;;;;22.10;52.68;102088.25;5082003;27;45665;-55
2021/09/01 10:01:44;;;;;;;;;23.75;23.50;;;;;22.16;52.53;102087.97;5080074;28;46086;-54
2021/09/01 10:04:10;;;;;;;;;23.50;22.50;;;;;22.23;53.09;102086.72;5070488;28;45566;-54
2021/09/01 10:06:36;;;;;;;;;24.00;24.00;;;;;22.29;52.89;102086.44;5081363;27;45328;-54
2021/09/01 10:09:04;;;;;;;;;23.75;22.75;;;;;22.29;52.70;102090.00;5080394;28;45391;-55
2021/09/01 10:11:31;;;;;;;;;23.25;21.00;;;;;22.28;52.05;102087.38;5076885;28;48200;-54
2021/09/01 10:13:57;;;;;;;;;25.75;22.00;;;;;22.34;52.25;102089.78;5082606;27;45384;-55
2021/09/01 10:16:23;;;;;;;;;22.25;22.00;;;;;22.35;52.46;102083.41;5081422;27;45544;-51
2021/09/01 10:19:14;;;;;;;;;26.75;24.50;;;;;22.31;51.80;102084.53;5062516;28;45374;-55
2021/09/01 10:21:45;;;;;;;;;23.50;21.75;;;;;22.27;51.98;102072.13;5076479;27;48327;-56
2021/09/01 10:24:19;;;;;;;;;20.00;18.50;;;;;22.22;52.05;102082.25;5076502;28;45267;-54
2021/09/01 10:27:07;;;;;;;;;22.25;17.50;;;;;22.14;52.24;102077.25;5057621;28;45508;-53
2021/09/01 10:29:50;;;;;;;;;23.50;23.50;;;;;22.11;51.81;102080.09;5081484;27;45377;-51
2021/09/01 10:32:42;;;;;;;;;22.75;20.75;;;;;22.11;52.29;102082.81;5077083;28;48248;-53
2021/09/01 10:35:17;;;;;;;;;21.75;20.50;;;;;22.12;52.06;102079.16;5065327;28;45541;-54
2021/09/01 10:37:50;;;;;;;;;25.50;23.75;;;;;22.12;52.19;102081.84;5054510;28;45808;-55
2021/09/01 10:40:22;;;;;;;;;24.00;21.00;;;;;22.14;52.49;102066.44;5074008;27;45721;-53
2021/09/01 10:42:49;;;;;;;;;21.75;19.75;;;;;22.19;52.69;102060.78;5072821;27;47460;-54
2021/09/01 10:45:17;;;;;;;;;18.50;18.25;;;;;22.24;52.49;102061.47;5077823;28;45334;-55
2021/09/01 10:47:54;;;;;;;;;19.25;18.25;;;;;22.24;51.87;102054.22;5083173;27;45468;-53
2021/09/01 10:50:30;;;;;;;;;16.25;16.25;;;;;22.22;52.04;102056.09;5062829;28;45466;-53
2021/09/01 10:53:03;;;;;;;;;24.00;20.75;;;;;22.21;51.56;102053.47;5061986;28;47005;-53
2021/09/01 10:55:30;;;;;;;;;21.50;18.50;;;;;22.18;52.01;102056.34;5080967;27;45465;-53
2021/09/01 10:58:20;;;;;;;;;24.00;23.75;;;;;22.15;52.17;102051.97;5069500;28;45264;-54
2021/09/01 11:00:55;;;;;;;;;18.50;18.25;;;;;22.12;52.39;102049.41;5062968;28;45558;-55
2021/09/01 11:03:29;;;;;;;;;22.00;19.25;;;;;22.07;52.00;102039.75;5074274;27;45456;-53
2021/09/01 11:05:55;;;;;;;;;23.00;22.25;;;;;22.09;52.38;102048.66;5061690;28;45335;-54
2021/09/01 11:08:20;;;;;;;;;18.25;18.25;;;;;22.11;52.12;102044.97;5079236;27;45518;-55
2021/09/01 11:10:56;;;;;;;;;21.00;21.00;;;;;22.11;52.10;102033.28;5060990;27;45769;-55